createdAt,value
2024-04-24T00:02:57.986Z,5.40
2024-04-24T00:06:30.055Z,2.60
2024-04-24T00:08:58.580Z,2.10
2024-04-24T00:11:27.470Z,4.40
2024-04-24T00:13:58.970Z,3.60
2024-04-24T00:16:27.385Z,4.90
2024-04-24T00:19:15.655Z,2.20
2024-04-24T00:21:44.336Z,3.90
2024-04-24T00:24:16.974Z,3.30
2024-04-24T00:26:45.417Z,7.20
2024-04-24T00:29:13.655Z,5.10
2024-04-24T00:31:49.431Z,8.60
2024-04-24T00:34:18.137Z,7.80
2024-04-24T00:36:52.200Z,6.80
2024-04-24T00:39:22.988Z,5.20
2024-04-24T00:41:51.693Z,5.70
2024-04-24T00:45:20.257Z,3.60
2024-04-24T00:48:50.105Z,9.40
2024-04-24T00:51:42.430Z,4.20
2024-04-24T00:54:10.726Z,8.30
2024-04-24T00:56:39.995Z,3.00
2024-04-24T00:59:11.192Z,10.60
2024-04-24T01:01:39.970Z,4.60
2024-04-24T01:04:13.880Z,3.40
2024-04-24T01:06:42.143Z,4.30
2024-04-24T01:09:10.461Z,2.90
2024-04-24T01:11:38.639Z,4.40
2024-04-24T01:14:07.480Z,4.00
2024-04-24T01:16:41.000Z,3.20
2024-04-24T01:19:42.393Z,2.50
2024-04-24T01:22:28.280Z,3.60
2024-04-24T01:25:29.846Z,4.60
2024-04-24T01:28:18.149Z,4.70
2024-04-24T01:30:49.760Z,6.70
2024-04-24T01:33:21.411Z,7.00
2024-04-24T01:35:50.242Z,5.10
2024-04-24T01:38:21.534Z,2.40
2024-04-24T01:40:52.509Z,4.30
2024-04-24T01:43:40.961Z,4.20
2024-04-24T01:46:12.510Z,3.90
2024-04-24T01:48:43.710Z,7.00
2024-04-24T01:51:30.448Z,5.90
2024-04-24T01:54:01.774Z,8.20
2024-04-24T01:56:32.459Z,7.30
2024-04-24T01:59:01.056Z,4.90
2024-04-24T02:01:50.256Z,5.70
2024-04-24T02:06:49.267Z,7.30
2024-04-24T02:11:51.050Z,5.70
2024-04-24T02:14:24.870Z,10.10
2024-04-24T02:17:09.147Z,7.30
2024-04-24T02:19:42.477Z,7.80
2024-04-24T02:22:11.389Z,5.10
2024-04-24T02:25:07.650Z,3.40
2024-04-24T02:27:41.557Z,6.70
2024-04-24T02:30:16.199Z,5.70
2024-04-24T02:32:44.958Z,6.90
2024-04-24T02:35:22.019Z,6.00
2024-04-24T02:37:50.686Z,6.20
2024-04-24T02:40:21.626Z,6.70
2024-04-24T02:42:50.471Z,3.60
2024-04-24T02:45:21.808Z,5.40
2024-04-24T02:47:53.419Z,5.00
2024-04-24T02:50:22.147Z,5.30
2024-04-24T02:52:51.272Z,8.40
2024-04-24T02:55:25.163Z,5.80
2024-04-24T02:57:56.433Z,6.50
2024-04-24T03:00:27.474Z,10.90
2024-04-24T03:02:59.364Z,6.80
2024-04-24T03:05:28.350Z,4.90
2024-04-24T03:08:31.514Z,4.30
2024-04-24T03:11:00.182Z,6.10
2024-04-24T03:14:00.790Z,5.20
2024-04-24T03:16:35.307Z,9.30
2024-04-24T03:19:09.825Z,11.30
2024-04-24T03:21:44.048Z,4.80
2024-04-24T03:24:15.576Z,5.80
2024-04-24T03:27:01.225Z,8.80
2024-04-24T03:29:41.855Z,5.50
2024-04-24T03:32:10.690Z,4.20
2024-04-24T03:34:47.863Z,5.20
2024-04-24T03:37:36.749Z,5.10
2024-04-24T03:40:05.810Z,5.00
2024-04-24T03:42:45.208Z,8.80
2024-04-24T03:45:16.611Z,8.20
2024-04-24T03:47:45.015Z,4.50
2024-04-24T03:50:16.739Z,5.00
2024-04-24T03:52:48.207Z,5.40
2024-04-24T03:55:19.750Z,6.50
2024-04-24T03:57:50.303Z,7.10
2024-04-24T04:00:24.586Z,4.90
2024-04-24T04:02:53.005Z,4.70
2024-04-24T04:05:24.078Z,6.20
2024-04-24T04:10:29.947Z,9.50
2024-04-24T04:12:57.983Z,5.90
2024-04-24T04:15:26.175Z,9.80
2024-04-24T04:17:57.952Z,4.70
2024-04-24T04:20:26.902Z,9.50
2024-04-24T04:23:05.697Z,6.00
2024-04-24T04:25:34.586Z,10.80
2024-04-24T04:28:13.921Z,5.90
2024-04-24T04:30:42.184Z,6.50
2024-04-24T04:33:10.817Z,6.60
2024-04-24T04:35:39.364Z,6.10
2024-04-24T04:38:07.629Z,8.00
2024-04-24T04:40:38.368Z,9.90
2024-04-24T04:45:43.923Z,8.00
2024-04-24T04:48:41.429Z,5.90
2024-04-24T04:51:21.276Z,5.00
2024-04-24T04:54:09.748Z,8.20
2024-04-24T04:57:46.039Z,6.50
2024-04-24T05:01:34.873Z,6.50
2024-04-24T05:05:06.545Z,7.80
2024-04-24T05:08:55.519Z,6.80
2024-04-24T05:12:21.891Z,5.70
2024-04-24T05:15:30.974Z,8.90
2024-04-24T05:18:25.299Z,10.80
2024-04-24T05:21:01.463Z,5.10
2024-04-24T05:23:54.046Z,11.10
2024-04-24T05:27:04.303Z,6.60
2024-04-24T05:29:55.016Z,4.40
2024-04-24T05:32:44.026Z,6.80
2024-04-24T05:36:04.789Z,5.00
2024-04-24T05:39:06.375Z,4.60
2024-04-24T05:41:59.116Z,3.50
2024-04-24T05:44:39.143Z,3.40
2024-04-24T05:47:45.440Z,5.10
2024-04-24T05:50:27.082Z,5.70
2024-04-24T05:53:21.627Z,5.00
2024-04-24T05:56:26.291Z,1.70
2024-04-24T05:59:57.124Z,4.50
2024-04-24T06:03:11.194Z,3.60
2024-04-24T06:06:27.130Z,3.20
2024-04-24T06:09:39.790Z,2.30
2024-04-24T06:12:21.032Z,5.00
2024-04-24T06:15:41.347Z,4.40
2024-04-24T06:18:46.289Z,2.00
2024-04-24T06:22:11.422Z,4.90
2024-04-24T06:25:24.042Z,3.60
2024-04-24T06:28:24.224Z,4.90
2024-04-24T06:31:21.564Z,3.30
2024-04-24T06:34:50.291Z,3.60
2024-04-24T06:37:18.643Z,2.60
2024-04-24T06:40:09.870Z,5.30
2024-04-24T06:43:03.962Z,4.50
2024-04-24T06:46:08.183Z,4.80
2024-04-24T06:48:57.003Z,4.30
2024-04-24T06:51:32.568Z,3.40
2024-04-24T06:54:04.955Z,4.70
2024-04-24T06:56:52.303Z,3.70
2024-04-24T06:59:58.199Z,4.80
2024-04-24T07:02:47.829Z,5.10
2024-04-24T07:05:33.438Z,2.50
2024-04-24T07:08:13.498Z,10.40
2024-04-24T07:11:01.160Z,6.50
2024-04-24T07:13:34.817Z,3.20
2024-04-24T07:16:42.055Z,5.10
2024-04-24T07:19:23.926Z,5.60
2024-04-24T07:22:15.397Z,3.70
2024-04-24T07:25:00.225Z,3.90
2024-04-24T07:30:36.329Z,4.90
2024-04-24T07:33:49.020Z,2.50
2024-04-24T07:36:58.168Z,2.00
2024-04-24T07:39:43.748Z,1.80
2024-04-24T07:42:14.914Z,3.00
2024-04-24T07:45:01.808Z,2.80
2024-04-24T07:50:31.671Z,3.40
2024-04-24T07:53:23.504Z,3.40
2024-04-24T07:56:21.906Z,4.20
2024-04-24T07:59:05.393Z,4.80
2024-04-24T08:02:02.904Z,2.50
2024-04-24T08:05:40.619Z,4.90
2024-04-24T08:09:22.338Z,1.70
2024-04-24T08:12:26.989Z,2.70
2024-04-24T08:15:29.154Z,4.20
2024-04-24T08:18:00.441Z,6.00
2024-04-24T08:20:28.986Z,5.80
2024-04-24T08:22:57.376Z,5.70
2024-04-24T08:25:46.542Z,3.60
2024-04-24T08:28:18.505Z,3.40
2024-04-24T08:31:14.834Z,6.00
2024-04-24T08:34:10.136Z,5.20
2024-04-24T08:39:09.694Z,2.60
2024-04-24T08:41:45.648Z,2.20
2024-04-24T08:44:49.200Z,3.10
2024-04-24T08:47:43.331Z,2.70
2024-04-24T08:50:20.139Z,1.60
2024-04-24T08:53:03.802Z,2.10
2024-04-24T08:55:40.819Z,3.70
2024-04-24T08:58:19.493Z,1.70
2024-04-24T09:00:48.722Z,2.40
2024-04-24T09:03:52.837Z,2.50
2024-04-24T09:06:34.312Z,2.80
2024-04-24T09:09:03.394Z,1.90
2024-04-24T09:11:34.937Z,2.10
2024-04-24T09:14:07.556Z,4.00
2024-04-24T09:16:40.145Z,2.60
2024-04-24T09:19:08.832Z,3.50
2024-04-24T09:21:43.442Z,2.40
2024-04-24T09:24:23.153Z,1.80
2024-04-24T09:27:34.273Z,3.90
2024-04-24T09:30:15.347Z,1.40
2024-04-24T09:33:34.465Z,3.20
2024-04-24T09:36:14.946Z,2.10
2024-04-24T09:38:56.065Z,1.60
2024-04-24T09:41:48.711Z,2.10
2024-04-24T09:44:19.847Z,1.30
2024-04-24T09:46:52.469Z,1.30
2024-04-24T09:49:37.536Z,1.70
2024-04-24T09:52:30.693Z,2.30
2024-04-24T09:55:11.961Z,1.50
2024-04-24T09:58:00.734Z,3.40
2024-04-24T10:00:30.038Z,1.70
2024-04-24T10:03:47.250Z,2.40
2024-04-24T10:06:44.047Z,2.40
2024-04-24T10:09:27.569Z,2.70
2024-04-24T10:12:09.966Z,3.30
2024-04-24T10:17:32.834Z,1.60
2024-04-24T10:20:12.219Z,3.10
2024-04-24T10:22:55.563Z,2.90
2024-04-24T10:25:33.909Z,3.10
2024-04-24T10:28:04.987Z,3.60
2024-04-24T10:31:18.917Z,2.00
2024-04-24T10:34:33.770Z,3.70
2024-04-24T10:38:08.466Z,2.70
2024-04-24T10:41:12.749Z,2.10
2024-04-24T10:44:04.585Z,2.20
2024-04-24T10:46:33.585Z,1.90
2024-04-24T10:49:12.742Z,2.30
2024-04-24T10:51:55.753Z,3.70
2024-04-24T10:54:53.350Z,2.50
2024-04-24T10:57:48.223Z,5.70
2024-04-24T11:01:03.344Z,2.00
2024-04-24T11:03:52.123Z,4.40
2024-04-24T11:07:05.353Z,3.10
2024-04-24T11:10:12.366Z,5.90
2024-04-24T11:12:47.084Z,3.30
2024-04-24T11:15:21.272Z,2.60
2024-04-24T11:18:12.804Z,3.50
2024-04-24T11:20:42.205Z,1.50
2024-04-24T11:23:10.958Z,2.30
2024-04-24T11:25:58.475Z,5.90
2024-04-24T11:28:34.563Z,2.20
2024-04-24T11:31:12.379Z,3.80
2024-04-24T11:33:50.548Z,2.60
2024-04-24T11:36:20.030Z,3.30
2024-04-24T11:39:12.979Z,2.70
2024-04-24T11:41:50.790Z,2.40
2024-04-24T11:44:22.226Z,4.10
2024-04-24T11:47:00.159Z,2.40
2024-04-24T11:49:29.115Z,4.40
2024-04-24T11:52:20.181Z,4.00
2024-04-24T11:54:58.031Z,3.40
2024-04-24T11:57:39.209Z,3.00
2024-04-24T12:00:13.802Z,1.80
2024-04-24T12:02:44.947Z,2.40
2024-04-24T12:05:13.481Z,1.90
2024-04-24T12:08:34.318Z,1.90
2024-04-24T12:11:42.388Z,1.60
2024-04-24T12:14:19.104Z,3.60
2024-04-24T12:17:07.391Z,3.20
2024-04-24T12:19:54.146Z,1.70
2024-04-24T12:22:23.126Z,1.50
2024-04-24T12:24:53.951Z,1.90
2024-04-24T12:27:34.970Z,3.20
2024-04-24T12:30:07.503Z,1.60
2024-04-24T12:32:56.172Z,2.30
2024-04-24T12:35:40.077Z,1.60
2024-04-24T12:38:12.332Z,1.80
2024-04-24T12:41:16.998Z,3.10
2024-04-24T12:43:51.574Z,3.70
2024-04-24T12:46:19.693Z,2.00
2024-04-24T12:48:57.702Z,2.10
2024-04-24T12:51:46.153Z,2.10
2024-04-24T12:54:21.202Z,3.20
2024-04-24T12:56:54.374Z,2.40
2024-04-24T12:59:39.594Z,3.30
2024-04-24T13:02:14.919Z,2.10
2024-04-24T13:04:45.628Z,4.00
2024-04-24T13:07:17.460Z,2.60
2024-04-24T13:09:49.343Z,1.50
2024-04-24T13:12:23.043Z,3.00
2024-04-24T13:15:07.993Z,2.30
2024-04-24T13:17:45.407Z,1.90
2024-04-24T13:20:40.175Z,2.00
2024-04-24T13:24:11.922Z,1.40
2024-04-24T13:28:00.869Z,1.80
2024-04-24T13:31:05.559Z,2.90
2024-04-24T13:34:03.491Z,2.60
2024-04-24T13:36:37.236Z,2.00
2024-04-24T13:39:13.302Z,2.90
2024-04-24T13:41:52.438Z,1.10
2024-04-24T13:44:21.518Z,1.60
2024-04-24T13:47:01.059Z,3.80
2024-04-24T13:49:29.981Z,2.10
2024-04-24T13:52:29.888Z,2.10
2024-04-24T13:54:58.292Z,2.10
2024-04-24T13:57:36.163Z,2.70
2024-04-24T14:00:08.093Z,2.10
2024-04-24T14:02:54.317Z,1.60
2024-04-24T14:05:43.213Z,1.80
2024-04-24T14:08:59.866Z,2.40
2024-04-24T14:12:20.229Z,3.10
2024-04-24T14:15:10.478Z,3.50
2024-04-24T14:18:05.853Z,1.90
2024-04-24T14:20:37.217Z,3.10
2024-04-24T14:23:06.134Z,4.10
2024-04-24T14:25:35.659Z,3.10
2024-04-24T14:28:27.567Z,2.60
2024-04-24T14:31:04.496Z,1.50
2024-04-24T14:33:56.638Z,4.10
2024-04-24T14:36:45.248Z,3.40
2024-04-24T14:39:22.184Z,2.60
2024-04-24T14:42:26.046Z,3.20
2024-04-24T14:45:14.996Z,3.60
2024-04-24T14:50:35.149Z,2.40
2024-04-24T14:53:16.024Z,1.90
2024-04-24T14:55:58.495Z,1.90
2024-04-24T14:58:29.828Z,2.90
2024-04-24T15:01:09.823Z,5.50
2024-04-24T15:03:41.326Z,3.00
2024-04-24T15:06:39.534Z,1.70
2024-04-24T15:09:36.860Z,3.70
2024-04-24T15:13:04.572Z,3.50
2024-04-24T15:16:06.351Z,3.70
2024-04-24T15:18:35.246Z,3.10
2024-04-24T15:21:07.474Z,5.00
2024-04-24T15:24:07.952Z,4.30
2024-04-24T15:26:41.915Z,4.40
2024-04-24T15:33:03.845Z,3.50
2024-04-24T15:36:28.771Z,7.10
2024-04-24T15:39:11.505Z,3.60
2024-04-24T15:42:07.743Z,2.70
2024-04-24T15:45:37.545Z,2.70
2024-04-24T15:48:58.124Z,4.60
2024-04-24T15:51:43.104Z,6.90
2024-04-24T15:54:41.579Z,3.30
2024-04-24T15:57:16.482Z,3.20
2024-04-24T15:59:47.880Z,2.90
2024-04-24T16:02:49.531Z,2.80
2024-04-24T16:06:37.748Z,3.50
2024-04-24T16:10:26.630Z,2.10
2024-04-24T16:14:16.514Z,3.90
2024-04-24T16:17:36.331Z,3.00
2024-04-24T16:20:32.594Z,3.10
2024-04-24T16:24:08.100Z,4.80
2024-04-24T16:26:59.568Z,2.70
2024-04-24T16:30:03.752Z,4.60
2024-04-24T16:33:08.733Z,3.60
2024-04-24T16:36:17.459Z,4.50
2024-04-24T16:39:38.355Z,5.00
2024-04-24T16:42:47.517Z,6.60
2024-04-24T16:46:13.627Z,7.60
2024-04-24T16:48:54.815Z,7.40
2024-04-24T16:52:08.900Z,4.10
2024-04-24T16:55:04.219Z,5.00
2024-04-24T17:00:47.590Z,6.30
2024-04-24T17:03:29.680Z,6.80
2024-04-24T17:06:51.647Z,7.50
2024-04-24T17:09:47.335Z,7.50
2024-04-24T17:12:26.920Z,10.10
2024-04-24T17:15:02.124Z,6.30
2024-04-24T17:17:59.186Z,4.90
2024-04-24T17:21:09.574Z,7.10
2024-04-24T17:24:01.731Z,7.50
2024-04-24T17:27:10.530Z,12.80
2024-04-24T17:30:07.550Z,13.40
2024-04-24T17:33:37.620Z,12.70
2024-04-24T17:37:02.194Z,10.20
2024-04-24T17:40:14.453Z,12.60
2024-04-24T17:43:13.595Z,6.60
2024-04-24T17:47:02.427Z,7.80
2024-04-24T17:49:48.837Z,9.10
2024-04-24T17:53:04.801Z,8.90
2024-04-24T17:55:56.458Z,8.30
2024-04-24T17:59:40.482Z,8.70
2024-04-24T18:03:08.515Z,9.60
2024-04-24T18:06:47.752Z,10.50
2024-04-24T18:10:36.550Z,11.80
2024-04-24T18:14:08.324Z,9.60
2024-04-24T18:17:49.999Z,10.80
2024-04-24T18:21:32.596Z,7.70
2024-04-24T18:25:16.324Z,10.70
2024-04-24T18:29:05.472Z,11.10
2024-04-24T18:32:54.552Z,8.20
2024-04-24T18:36:36.581Z,8.00
2024-04-24T18:40:25.520Z,8.10
2024-04-24T18:44:07.651Z,10.80
2024-04-24T18:47:21.712Z,10.50
2024-04-24T18:50:54.004Z,8.90
2024-04-24T18:54:15.613Z,8.90
2024-04-24T18:57:37.073Z,15.70
2024-04-24T19:00:46.236Z,13.70
2024-04-24T19:04:12.557Z,17.90
2024-04-24T19:07:33.406Z,9.10
2024-04-24T19:10:59.729Z,16.20
2024-04-24T19:14:31.392Z,15.20
2024-04-24T19:17:53.946Z,17.20
2024-04-24T19:21:31.993Z,10.90
2024-04-24T19:24:51.097Z,13.60
2024-04-24T19:28:30.586Z,9.80
2024-04-24T19:32:18.457Z,14.70
2024-04-24T19:35:59.113Z,11.90
2024-04-24T19:39:40.181Z,10.10
2024-04-24T19:43:28.388Z,9.50
2024-04-24T19:47:17.596Z,15.40
2024-04-24T19:50:49.609Z,14.70
2024-04-24T19:54:13.099Z,9.60
2024-04-24T19:57:36.091Z,8.50
2024-04-24T20:01:16.476Z,11.20
2024-04-24T20:04:48.476Z,9.60
2024-04-24T20:08:20.377Z,11.00
2024-04-24T20:11:53.180Z,9.70
2024-04-24T20:15:33.840Z,10.70
2024-04-24T20:19:03.214Z,6.20
2024-04-24T20:22:45.362Z,7.50
2024-04-24T20:26:14.032Z,7.90
2024-04-24T20:29:22.639Z,9.90
2024-04-24T20:32:13.441Z,13.80
2024-04-24T20:35:41.012Z,8.00
2024-04-24T20:38:24.240Z,9.00
2024-04-24T20:41:42.355Z,7.90
2024-04-24T20:45:04.985Z,7.90
2024-04-24T20:48:47.268Z,12.90
2024-04-24T20:55:04.745Z,9.50
2024-04-24T20:58:16.339Z,7.90
2024-04-24T21:01:45.213Z,10.40
2024-04-24T21:05:17.098Z,9.60
2024-04-24T21:08:31.158Z,7.50
2024-04-24T21:12:03.067Z,7.20
2024-04-24T21:15:43.538Z,7.90
2024-04-24T21:18:57.652Z,8.80
2024-04-24T21:22:45.792Z,7.60
2024-04-24T21:26:29.748Z,11.10
2024-04-24T21:30:08.633Z,9.20
2024-04-24T21:33:38.827Z,9.20
2024-04-24T21:36:56.402Z,8.90
2024-04-24T21:40:28.373Z,8.20
2024-04-24T21:43:27.696Z,9.10
2024-04-24T21:47:01.836Z,9.10
2024-04-24T21:50:25.939Z,10.30
2024-04-24T21:53:35.109Z,12.00
2024-04-24T21:56:49.291Z,8.70
2024-04-24T22:00:18.111Z,15.50
2024-04-24T22:03:43.040Z,16.60
2024-04-24T22:07:05.164Z,11.30
2024-04-24T22:10:17.582Z,11.00
2024-04-24T22:13:39.835Z,9.90
2024-04-24T22:17:19.147Z,11.50
2024-04-24T22:20:54.991Z,17.40
2024-04-24T22:24:22.533Z,13.10
2024-04-24T22:28:05.573Z,12.60
2024-04-24T22:31:39.983Z,14.60
2024-04-24T22:35:08.938Z,11.80
2024-04-24T22:37:57.430Z,11.20
2024-04-24T22:41:45.197Z,13.00
2024-04-24T22:45:26.907Z,14.20
2024-04-24T22:48:41.313Z,15.70
2024-04-24T22:52:19.636Z,12.30
2024-04-24T22:56:08.470Z,12.40
2024-04-24T22:59:21.530Z,10.70
2024-04-24T23:02:21.236Z,12.60
2024-04-24T23:05:27.779Z,9.40
2024-04-24T23:09:06.756Z,7.70
2024-04-24T23:11:59.925Z,9.40
2024-04-24T23:14:56.868Z,8.70
2024-04-24T23:17:53.965Z,7.50
2024-04-24T23:21:10.226Z,8.90
2024-04-24T23:24:27.623Z,8.00
2024-04-24T23:28:25.285Z,10.90
2024-04-24T23:32:14.296Z,8.00
2024-04-24T23:35:36.224Z,8.80
2024-04-24T23:39:05.212Z,12.40
2024-04-24T23:42:42.748Z,7.40
2024-04-24T23:45:54.121Z,10.90
2024-04-24T23:49:28.369Z,7.70
2024-04-24T23:52:12.128Z,16.60
2024-04-24T23:55:41.934Z,12.60
2024-04-24T23:58:54.397Z,8.90
